Time;durP1;ratioP1;P1;durP2;ratioP2;P2;SDS_P1;SDS_P2;PMS_P1;PMS_P2;Temp;Humidity;BMP_temperature;BMP_pressure;BME280_temperature;BME280_humidity;BME280_pressure;Samples;Min_cycle;Max_cycle;Signal;HPM_P1;HPM_P2
2023/11/27 00:01:44;;;;;;;4.13;3.17;;;;;;;-5.07;78.87;93463.34;4915075;29;20101;-86
2023/11/27 00:04:09;;;;;;;4.43;3.22;;;;;;;-5.19;76.60;93428.88;4917626;28;20040;-88
2023/11/27 00:06:35;;;;;;;4.75;2.88;;;;;;;-5.23;72.62;93407.00;4916630;28;20494;-87
2023/11/27 00:09:00;;;;;;;5.65;3.10;;;;;;;-4.90;73.28;93453.88;4914496;28;20076;-88
2023/11/27 00:11:26;;;;;;;4.32;3.15;;;;;;;-4.83;67.39;93464.91;4930297;28;20039;-86
2023/11/27 00:13:51;;;;;;;2.80;2.42;;;;;;;-4.66;64.88;93476.19;4912974;28;20576;-87
2023/11/27 00:16:17;;;;;;;4.00;3.15;;;;;;;-4.86;63.36;93429.06;4916563;29;20069;-88
2023/11/27 00:18:46;;;;;;;3.65;2.78;;;;;;;-5.47;61.99;93318.09;4915137;28;20094;-88
2023/11/27 00:21:13;;;;;;;4.60;3.17;;;;;;;-4.48;61.10;93460.47;4916160;28;20467;-88
2023/11/27 00:23:39;;;;;;;2.60;2.40;;;;;;;-5.15;59.95;93378.91;4917542;29;20027;-87
2023/11/27 00:26:04;;;;;;;2.60;2.40;;;;;;;-4.97;59.90;93399.53;4913205;29;20015;-86
2023/11/27 00:28:30;;;;;;;3.55;2.15;;;;;;;-4.45;59.76;93527.53;4919343;28;20063;-88
2023/11/27 00:30:55;;;;;;;2.10;1.90;;;;;;;-4.82;59.12;93453.53;4912421;28;20069;-86
2023/11/27 00:33:21;;;;;;;2.67;2.08;;;;;;;-4.70;60.14;93469.88;4917983;28;20044;-85
2023/11/27 00:35:46;;;;;;;2.08;1.88;;;;;;;-4.36;59.08;93501.22;4913564;29;20154;-87
2023/11/27 00:38:12;;;;;;;7.55;4.10;;;;;;;-4.53;58.92;93468.16;4916503;29;20024;-87
2023/11/27 00:40:37;;;;;;;3.35;2.65;;;;;;;-4.58;59.00;93472.44;4916405;29;20039;-88
2023/11/27 00:43:04;;;;;;;3.38;2.47;;;;;;;-4.68;59.60;93454.88;4918404;29;20048;-87
2023/11/27 00:45:31;;;;;;;2.53;2.10;;;;;;;-4.31;59.98;93504.69;4924130;29;20032;-89
2023/11/27 00:47:59;;;;;;;2.65;2.00;;;;;;;-4.83;57.61;93399.31;4916884;28;20316;-90
2023/11/27 00:50:26;;;;;;;2.45;2.13;;;;;;;-4.56;56.04;93441.88;4915402;29;20023;-85
2023/11/27 00:52:52;;;;;;;2.78;2.58;;;;;;;-4.21;57.18;93522.28;4918507;29;20072;-88
2023/11/27 00:55:17;;;;;;;3.38;3.03;;;;;;;-4.21;57.78;93525.69;4931873;28;20036;-89
2023/11/27 00:57:42;;;;;;;2.45;2.25;;;;;;;-4.15;58.49;93534.38;4912369;29;20465;-88
2023/11/27 01:00:10;;;;;;;3.75;2.60;;;;;;;-4.15;58.66;93539.56;4915668;29;20036;-89
2023/11/27 01:02:39;;;;;;;5.40;3.40;;;;;;;-4.26;59.57;93530.78;4917259;29;20020;-88
2023/11/27 01:05:07;;;;;;;4.80;3.65;;;;;;;-4.33;59.18;93508.53;4923495;29;20039;-89
2023/11/27 01:07:33;;;;;;;3.83;2.88;;;;;;;-4.38;59.28;93513.63;4924451;29;20059;-88
2023/11/27 01:09:59;;;;;;;8.52;4.88;;;;;;;-5.25;59.45;93396.06;4928897;29;20032;-89
2023/11/27 01:12:24;;;;;;;3.30;2.67;;;;;;;-4.55;59.92;93519.53;4912729;29;20064;-89
2023/11/27 01:14:50;;;;;;;3.38;2.80;;;;;;;-4.66;59.67;93486.56;4919868;29;20118;-89
2023/11/27 01:17:16;;;;;;;5.32;3.70;;;;;;;-4.30;58.70;93552.22;4915255;29;20119;-88
2023/11/27 01:19:41;;;;;;;3.35;2.67;;;;;;;-4.32;58.08;93538.69;4913054;29;20612;-86
2023/11/27 01:22:07;;;;;;;2.45;2.25;;;;;;;-4.62;58.32;93484.31;4918207;29;20044;-89
2023/11/27 01:24:32;;;;;;;4.70;3.33;;;;;;;-4.29;58.46;93517.47;4916845;28;20039;-89
2023/11/27 01:26:58;;;;;;;4.80;2.80;;;;;;;-4.35;59.12;93518.38;4913163;29;20036;-89
2023/11/27 01:29:30;;;;;;;2.47;2.33;;;;;;;-4.57;58.96;93469.63;4916414;29;20573;-87
2023/11/27 01:31:55;;;;;;;2.95;2.33;;;;;;;-4.93;58.54;93407.66;4919695;29;20031;-89
2023/11/27 01:34:23;;;;;;;3.03;2.72;;;;;;;-5.17;58.11;93367.97;4913621;29;20051;-86
2023/11/27 01:36:49;;;;;;;3.65;2.92;;;;;;;-4.80;57.90;93425.56;4915532;29;20039;-87
2023/11/27 01:39:15;;;;;;;1.83;1.73;;;;;;;-4.29;59.41;93501.88;4915176;29;20066;-88
2023/11/27 01:41:40;;;;;;;2.05;1.95;;;;;;;-4.19;62.07;93515.84;4919669;28;20028;-89
2023/11/27 01:44:06;;;;;;;2.78;2.10;;;;;;;-4.71;63.68;93473.50;4923078;29;20020;-88
2023/11/27 01:46:32;;;;;;;4.13;2.30;;;;;;;-4.44;61.73;93495.34;4920431;29;20383;-89
2023/11/27 01:48:58;;;;;;;2.60;2.10;;;;;;;-4.46;59.31;93481.03;4919328;29;20111;-87
2023/11/27 01:51:25;;;;;;;4.18;1.98;;;;;;;-4.36;59.49;93530.56;4919103;29;20118;-88
2023/11/27 01:53:58;;;;;;;1.90;1.80;;;;;;;-4.61;61.51;93493.69;4915821;28;20023;-88
2023/11/27 01:56:25;;;;;;;2.97;2.20;;;;;;;-4.61;60.02;93486.69;4922014;29;20381;-88
2023/11/27 01:58:55;;;;;;;2.60;2.40;;;;;;;-5.21;60.15;93441.25;4921130;29;20111;-89
2023/11/27 02:01:21;;;;;;;2.83;1.92;;;;;;;-4.53;60.28;93512.28;4919289;29;20585;-88
2023/11/27 02:03:46;;;;;;;1.95;1.85;;;;;;;-4.66;59.67;93473.59;4916916;29;20051;-88
2023/11/27 02:06:12;;;;;;;2.50;2.30;;;;;;;-5.02;59.22;93434.94;4919524;28;20533;-88
2023/11/27 02:08:38;;;;;;;2.25;1.90;;;;;;;-5.07;59.16;93416.66;4918625;29;20034;-87
2023/11/27 02:11:04;;;;;;;5.22;2.00;;;;;;;-4.52;58.69;93503.47;4921467;29;20179;-88
2023/11/27 02:13:30;;;;;;;2.97;2.35;;;;;;;-4.45;59.54;93531.94;4921717;29;20091;-89
2023/11/27 02:15:55;;;;;;;2.42;2.22;;;;;;;-4.67;59.01;93481.59;4916105;29;20565;-89
2023/11/27 02:18:21;;;;;;;2.00;1.80;;;;;;;-4.35;59.32;93537.34;4922687;29;20044;-88
2023/11/27 02:20:46;;;;;;;2.70;2.35;;;;;;;-5.36;58.21;93377.69;4915786;29;20034;-88
2023/11/27 02:23:14;;;;;;;2.35;2.15;;;;;;;-5.07;58.42;93424.44;4936116;28;20034;-88
2023/11/27 02:25:40;;;;;;;1.98;1.85;;;;;;;-4.45;58.45;93518.94;4918990;29;20175;-85
2023/11/27 02:28:06;;;;;;;2.08;1.75;;;;;;;-4.18;56.95;93543.41;4924212;29;20028;-88
2023/11/27 02:30:32;;;;;;;4.88;2.25;;;;;;;-4.22;56.64;93531.09;4921398;29;20260;-88
2023/11/27 02:32:57;;;;;;;4.70;3.05;;;;;;;-4.71;56.86;93451.94;4914682;29;20042;-88
2023/11/27 02:35:23;;;;;;;3.45;2.38;;;;;;;-4.31;57.72;93542.84;4920918;29;20374;-88
2023/11/27 02:37:49;;;;;;;2.28;2.03;;;;;;;-4.21;57.85;93524.91;4916675;28;20407;-88
2023/11/27 02:40:16;;;;;;;2.60;2.13;;;;;;;-4.23;57.67;93537.31;4917444;28;20028;-87
2023/11/27 02:42:42;;;;;;;3.17;2.22;;;;;;;-4.28;58.63;93534.59;4916569;29;20528;-87
2023/11/27 02:45:10;;;;;;;2.70;2.15;;;;;;;-5.13;58.85;93417.59;4935082;28;20027;-88
2023/11/27 02:47:36;;;;;;;1.90;1.80;;;;;;;-5.11;59.47;93418.13;4919717;29;20596;-88
2023/11/27 02:50:03;;;;;;;2.17;1.90;;;;;;;-4.20;59.40;93545.44;4919465;29;20051;-89
2023/11/27 02:52:29;;;;;;;1.92;1.83;;;;;;;-4.91;59.59;93426.38;4916172;29;20839;-88
2023/11/27 02:54:55;;;;;;;2.22;1.95;;;;;;;-4.32;59.90;93541.28;4921708;29;20036;-86
2023/11/27 02:57:22;;;;;;;2.22;2.00;;;;;;;-4.71;60.66;93504.63;4919869;29;20044;-89
2023/11/27 02:59:47;;;;;;;2.00;1.80;;;;;;;-4.26;61.09;93545.56;4920537;28;20024;-90
2023/11/27 03:02:13;;;;;;;2.40;1.77;;;;;;;-4.26;61.44;93535.16;4918092;29;20105;-88
2023/11/27 03:04:39;;;;;;;6.10;2.30;;;;;;;-4.36;61.75;93537.56;4918442;29;20159;-90
2023/11/27 03:07:05;;;;;;;2.10;1.90;;;;;;;-4.23;61.04;93545.09;4917580;29;20090;-88
2023/11/27 03:09:31;;;;;;;2.72;2.42;;;;;;;-5.11;60.09;93374.84;4919067;29;20043;-88
2023/11/27 03:12:00;;;;;;;2.30;2.05;;;;;;;-3.95;58.71;93557.38;4918580;29;20036;-89
2023/11/27 03:14:26;;;;;;;2.35;1.95;;;;;;;-4.02;60.89;93547.09;4923487;29;20027;-90
2023/11/27 03:16:51;;;;;;;2.20;2.00;;;;;;;-4.31;60.67;93498.72;4917390;29;20036;-89
2023/11/27 03:19:17;;;;;;;3.60;1.98;;;;;;;-4.66;60.03;93433.88;4918480;29;20506;-88
2023/11/27 03:21:42;;;;;;;2.10;1.80;;;;;;;-4.43;59.86;93450.19;4932195;28;20366;-88
2023/11/27 03:24:09;;;;;;;2.10;2.00;;;;;;;-4.05;58.24;93527.56;4922357;29;20043;-89
2023/11/27 03:26:35;;;;;;;2.00;1.80;;;;;;;-4.12;58.18;93518.31;4920985;29;20016;-89
2023/11/27 03:29:01;;;;;;;3.40;2.58;;;;;;;-3.81;58.65;93569.06;4932339;28;20032;-89
2023/11/27 03:31:29;;;;;;;2.75;2.42;;;;;;;-4.01;57.66;93517.50;4917353;29;20736;-89
2023/11/27 03:33:54;;;;;;;2.10;1.90;;;;;;;-3.70;57.65;93550.84;4919092;28;20032;-89
2023/11/27 03:36:20;;;;;;;2.20;2.05;;;;;;;-3.73;56.37;93559.09;4919315;29;20655;-90
2023/11/27 03:38:46;;;;;;;1.80;1.70;;;;;;;-3.69;55.75;93551.63;4917882;29;20047;-86
2023/11/27 03:41:21;;;;;;;1.80;1.70;;;;;;;-3.89;55.67;93536.44;4919008;29;20071;-89
2023/11/27 03:43:50;;;;;;;2.30;2.20;;;;;;;-4.15;55.71;93503.22;4919042;29;20036;-88
2023/11/27 03:46:16;;;;;;;1.85;1.75;;;;;;;-3.74;56.16;93552.31;4918546;29;20032;-90
2023/11/27 03:48:42;;;;;;;1.90;1.80;;;;;;;-4.27;55.49;93445.31;4923567;29;20044;-87
2023/11/27 03:51:08;;;;;;;1.67;1.58;;;;;;;-3.85;54.90;93511.56;4921481;29;20035;-87
2023/11/27 03:53:35;;;;;;;2.28;2.10;;;;;;;-4.18;54.27;93467.28;4916931;29;20040;-88
2023/11/27 03:56:00;;;;;;;3.08;1.75;;;;;;;-3.75;54.17;93540.34;4917709;29;20041;-88
2023/11/27 03:58:26;;;;;;;2.13;1.98;;;;;;;-3.74;54.13;93505.53;4913893;29;20039;-88
2023/11/27 04:00:55;;;;;;;1.80;1.70;;;;;;;-3.59;54.43;93551.81;4916260;28;20469;-87
2023/11/27 04:03:20;;;;;;;2.35;2.15;;;;;;;-4.14;54.20;93458.81;4915436;29;20036;-86
2023/11/27 04:05:47;;;;;;;2.50;2.30;;;;;;;-3.61;54.36;93557.25;4918991;29;20043;-87
2023/11/27 04:08:13;;;;;;;2.38;2.17;;;;;;;-3.98;54.83;93503.25;4915515;29;20612;-83
2023/11/27 04:10:38;;;;;;;2.50;2.30;;;;;;;-3.70;55.09;93552.63;4918649;29;20051;-88
2023/11/27 04:13:04;;;;;;;2.45;2.22;;;;;;;-4.00;56.20;93516.50;4919280;29;20095;-88
2023/11/27 04:15:30;;;;;;;2.63;2.42;;;;;;;-3.73;55.85;93553.13;4928712;29;20043;-86
2023/11/27 04:17:56;;;;;;;8.68;2.63;;;;;;;-3.57;56.57;93573.97;4927509;29;20350;-87
2023/11/27 04:20:22;;;;;;;2.58;2.38;;;;;;;-3.40;55.68;93578.41;4932232;29;20095;-86
2023/11/27 04:22:48;;;;;;;2.15;2.00;;;;;;;-3.60;55.21;93548.44;4916932;28;20215;-88
2023/11/27 04:25:13;;;;;;;2.22;2.13;;;;;;;-3.43;55.30;93579.69;4914882;29;20032;-88
2023/11/27 04:27:39;;;;;;;2.40;2.15;;;;;;;-3.79;54.80;93502.84;4913181;29;20224;-88
2023/11/27 04:30:05;;;;;;;2.67;2.47;;;;;;;-3.89;55.31;93507.06;4920591;29;20036;-87
2023/11/27 04:32:32;;;;;;;10.00;2.58;;;;;;;-3.61;54.58;93546.06;4916947;29;20054;-87
2023/11/27 04:34:58;;;;;;;2.67;2.33;;;;;;;-3.49;54.95;93579.81;4916509;29;20136;-87
2023/11/27 04:37:24;;;;;;;4.28;3.03;;;;;;;-3.47;55.56;93588.19;4917414;28;20129;-87
2023/11/27 04:39:51;;;;;;;3.33;2.78;;;;;;;-3.45;55.09;93599.13;4914762;29;21118;-87
2023/11/27 04:42:17;;;;;;;3.45;3.15;;;;;;;-3.92;55.35;93518.72;4915523;29;20047;-87
2023/11/27 04:44:43;;;;;;;3.88;2.67;;;;;;;-3.29;54.49;93606.19;4925651;29;20070;-86
2023/11/27 04:47:18;;;;;;;3.15;2.40;;;;;;;-3.31;54.32;93613.44;4924022;29;20102;-86
2023/11/27 04:49:43;;;;;;;2.70;2.50;;;;;;;-4.41;54.87;93483.72;4916862;29;20739;-88
2023/11/27 04:52:09;;;;;;;2.75;2.25;;;;;;;-3.91;55.46;93561.88;4917358;28;20060;-88
2023/11/27 04:54:34;;;;;;;2.05;1.95;;;;;;;-4.44;55.02;93476.41;4916337;29;20032;-88
2023/11/27 04:57:00;;;;;;;2.13;1.90;;;;;;;-3.83;55.02;93553.72;4918050;28;20055;-86
2023/11/27 04:59:26;;;;;;;4.82;2.00;;;;;;;-3.83;54.42;93542.53;4924013;29;20036;-88
2023/11/27 05:01:52;;;;;;;3.28;2.45;;;;;;;-3.70;54.17;93592.41;4928186;29;20028;-86
2023/11/27 05:04:18;;;;;;;5.78;3.45;;;;;;;-4.26;53.62;93491.81;4924262;28;21047;-88
2023/11/27 05:06:44;;;;;;;2.40;2.20;;;;;;;-3.58;54.43;93610.59;4915723;28;20031;-90
2023/11/27 05:09:12;;;;;;;4.22;2.58;;;;;;;-4.12;53.84;93510.53;4913809;28;20049;-89
2023/11/27 05:11:38;;;;;;;2.22;2.03;;;;;;;-4.59;54.69;93463.91;4915621;29;20024;-89
2023/11/27 05:14:04;;;;;;;2.42;2.22;;;;;;;-3.42;54.71;93638.47;4931687;28;20644;-89
2023/11/27 05:16:30;;;;;;;3.72;2.60;;;;;;;-4.05;53.69;93519.75;4918557;29;20055;-87
2023/11/27 05:18:55;;;;;;;2.53;2.33;;;;;;;-3.37;53.72;93645.59;4918658;29;20028;-89
2023/11/27 05:21:21;;;;;;;2.08;1.90;;;;;;;-3.57;54.12;93640.78;4921344;29;20047;-89
2023/11/27 05:23:47;;;;;;;2.67;2.20;;;;;;;-3.62;53.38;93628.47;4916289;28;20073;-89
2023/11/27 05:26:13;;;;;;;2.05;1.85;;;;;;;-4.30;53.48;93519.28;4919011;29;20063;-87
2023/11/27 05:28:39;;;;;;;2.25;1.77;;;;;;;-3.61;54.13;93645.63;4919190;29;20040;-89
2023/11/27 05:31:15;;;;;;;2.15;2.03;;;;;;;-3.70;54.65;93634.00;4918914;28;20067;-88
2023/11/27 05:33:42;;;;;;;2.25;2.05;;;;;;;-5.06;53.91;93419.03;4936585;29;20051;-88
2023/11/27 05:36:09;;;;;;;1.95;1.85;;;;;;;-4.24;53.40;93572.06;4932569;28;20471;-90
2023/11/27 05:38:35;;;;;;;1.67;1.58;;;;;;;-3.73;52.39;93615.47;4918264;29;20028;-89
2023/11/27 05:41:01;;;;;;;1.85;1.75;;;;;;;-3.69;54.79;93655.59;4914045;29;20401;-90
2023/11/27 05:43:28;;;;;;;2.10;1.90;;;;;;;-3.81;53.50;93655.63;4919409;29;20569;-89
2023/11/27 05:45:54;;;;;;;2.03;1.83;;;;;;;-3.96;54.46;93636.31;4931381;29;20103;-88
2023/11/27 05:48:19;;;;;;;2.30;2.10;;;;;;;-3.97;54.60;93655.50;4948621;28;20047;-89
2023/11/27 05:50:46;;;;;;;1.88;1.77;;;;;;;-3.82;54.13;93689.63;4930353;29;20004;-89
2023/11/27 05:53:12;;;;;;;4.53;2.35;;;;;;;-3.85;53.23;93680.47;4918241;29;20051;-89
2023/11/27 05:55:39;;;;;;;2.38;1.70;;;;;;;-4.64;53.96;93562.41;4921139;28;20414;-89
2023/11/27 05:58:05;;;;;;;2.35;2.00;;;;;;;-3.77;54.61;93719.09;4916979;29;20055;-89
2023/11/27 06:00:30;;;;;;;2.53;2.00;;;;;;;-4.13;53.83;93651.78;4919229;28;20035;-87
2023/11/27 06:02:57;;;;;;;1.98;1.88;;;;;;;-3.74;53.24;93691.88;4918318;29;20044;-88
2023/11/27 06:05:23;;;;;;;2.42;1.77;;;;;;;-3.83;57.13;93694.03;4918194;29;20157;-87
2023/11/27 06:07:49;;;;;;;2.47;2.28;;;;;;;-4.54;56.25;93600.78;4919031;29;20040;-88
2023/11/27 06:10:16;;;;;;;1.80;1.70;;;;;;;-3.78;55.62;93719.31;4915140;29;20110;-89
2023/11/27 06:12:42;;;;;;;1.67;1.58;;;;;;;-3.73;54.34;93704.63;4922272;29;20051;-90
2023/11/27 06:15:14;;;;;;;1.92;1.83;;;;;;;-3.73;53.93;93715.03;4943033;28;20036;-88
2023/11/27 06:17:43;;;;;;;1.70;1.60;;;;;;;-3.70;54.35;93695.59;4913558;29;21659;-89
2023/11/27 06:20:17;;;;;;;1.65;1.55;;;;;;;-3.76;54.95;93699.91;4915360;29;20032;-85
2023/11/27 06:22:42;;;;;;;1.80;1.60;;;;;;;-3.98;54.49;93661.72;4912806;28;20040;-88
2023/11/27 06:25:13;;;;;;;2.25;2.15;;;;;;;-3.66;54.44;93684.50;4932208;29;20040;-89
2023/11/27 06:27:38;;;;;;;2.35;1.70;;;;;;;-3.62;53.87;93690.84;4928691;29;20043;-88
2023/11/27 06:30:04;;;;;;;1.60;1.50;;;;;;;-4.54;53.78;93565.19;4916552;29;20035;-88
2023/11/27 06:32:30;;;;;;;2.25;1.83;;;;;;;-3.65;53.73;93693.88;4918464;29;20032;-88
2023/11/27 06:34:56;;;;;;;1.85;1.70;;;;;;;-3.78;53.19;93672.56;4917638;29;20634;-89
2023/11/27 06:37:21;;;;;;;2.35;1.80;;;;;;;-4.97;53.77;93499.88;4920656;29;20051;-86
2023/11/27 06:39:47;;;;;;;1.70;1.60;;;;;;;-3.62;53.87;93698.66;4915973;28;20036;-86
2023/11/27 06:42:14;;;;;;;1.60;1.50;;;;;;;-5.03;52.67;93495.63;4917489;28;20063;-85
2023/11/27 06:44:39;;;;;;;1.88;1.75;;;;;;;-3.88;51.70;93675.72;4916299;28;20466;-87
2023/11/27 06:47:05;;;;;;;1.50;1.40;;;;;;;-3.62;52.61;93719.44;4917116;29;20012;-88
2023/11/27 06:49:31;;;;;;;2.08;1.98;;;;;;;-3.82;53.22;93690.41;4917962;28;20063;-89
2023/11/27 06:51:56;;;;;;;1.73;1.63;;;;;;;-3.49;52.67;93730.59;4916393;29;20044;-87
2023/11/27 06:54:22;;;;;;;3.63;2.17;;;;;;;-4.11;52.20;93597.81;4921057;28;20569;-88
2023/11/27 06:56:48;;;;;;;2.42;2.13;;;;;;;-3.42;51.47;93732.09;4919415;28;20031;-86
2023/11/27 06:59:13;;;;;;;1.85;1.73;;;;;;;-3.52;51.60;93705.06;4918587;29;20020;-86
2023/11/27 07:01:41;;;;;;;3.85;2.58;;;;;;;-3.43;50.77;93724.50;4921821;29;20036;-87
2023/11/27 07:04:08;;;;;;;3.22;2.80;;;;;;;-3.46;50.48;93736.13;4925884;29;20124;-87
2023/11/27 07:06:36;;;;;;;1.83;1.73;;;;;;;-3.39;49.38;93715.22;4915681;28;20063;-86
2023/11/27 07:09:10;;;;;;;1.40;1.30;;;;;;;-3.65;48.61;93693.09;4911242;28;20047;-87
2023/11/27 07:11:37;;;;;;;2.47;1.58;;;;;;;-3.34;49.18;93749.13;4911706;29;20047;-90
2023/11/27 07:14:06;;;;;;;1.42;1.35;;;;;;;-3.26;49.13;93725.34;4936536;28;20406;-88
2023/11/27 07:16:35;;;;;;;1.50;1.40;;;;;;;-3.28;48.53;93727.41;4926389;29;20058;-87
2023/11/27 07:19:01;;;;;;;1.60;1.50;;;;;;;-3.15;48.19;93717.53;4917094;29;20126;-87
2023/11/27 07:21:27;;;;;;;1.35;1.20;;;;;;;-3.48;51.36;93693.19;4916091;29;20130;-88
2023/11/27 07:24:03;;;;;;;1.38;1.27;;;;;;;-4.16;48.47;93579.53;4919690;29;20175;-88
2023/11/27 07:26:29;;;;;;;1.65;1.55;;;;;;;-4.53;46.84;93491.53;4924758;29;20127;-86
2023/11/27 07:28:55;;;;;;;1.23;1.23;;;;;;;-3.23;46.77;93683.31;4922029;29;20063;-87
2023/11/27 07:31:21;;;;;;;1.35;1.30;;;;;;;-3.16;48.96;93699.56;4938380;28;20019;-88
2023/11/27 07:33:47;;;;;;;1.60;1.45;;;;;;;-3.58;49.47;93658.19;4930700;29;20036;-88
2023/11/27 07:36:13;;;;;;;1.55;1.45;;;;;;;-3.93;49.03;93599.47;4924155;29;20139;-85
2023/11/27 07:38:40;;;;;;;1.40;1.30;;;;;;;-3.57;50.73;93653.78;4922491;29;20054;-88
2023/11/27 07:41:07;;;;;;;1.60;1.50;;;;;;;-3.24;50.14;93702.53;4917224;29;20028;-87
2023/11/27 07:43:35;;;;;;;1.77;1.65;;;;;;;-3.15;50.45;93716.75;4920485;29;20158;-88
2023/11/27 07:46:06;;;;;;;1.42;1.33;;;;;;;-3.23;50.00;93678.88;4916258;29;20029;-87
2023/11/27 07:48:33;;;;;;;1.70;1.60;;;;;;;-3.04;50.08;93718.53;4918885;28;20144;-85
2023/11/27 07:50:59;;;;;;;1.50;1.42;;;;;;;-4.11;47.72;93538.88;4910507;28;20040;-85
2023/11/27 07:53:24;;;;;;;1.77;1.67;;;;;;;-3.47;61.01;93681.78;4908815;28;20063;-86
2023/11/27 07:55:49;;;;;;;9.65;1.60;;;;;;;-3.40;61.73;93709.22;4907475;29;20028;-87
2023/11/27 07:58:16;;;;;;;1.50;1.40;;;;;;;-4.51;70.06;93574.34;4913146;29;20035;-87
2023/11/27 08:00:42;;;;;;;1.40;1.30;;;;;;;-4.48;63.47;93599.84;4907770;28;20032;-87
2023/11/27 08:03:08;;;;;;;1.33;1.23;;;;;;;-3.98;59.59;93649.53;4912958;28;20111;-86
2023/11/27 08:05:35;;;;;;;1.50;1.38;;;;;;;-3.54;59.37;93725.28;4908527;29;20459;-86
2023/11/27 08:08:01;;;;;;;2.72;1.50;;;;;;;-3.40;56.42;93740.44;4909148;28;20625;-87
2023/11/27 08:10:28;;;;;;;1.48;1.38;;;;;;;-3.19;51.81;93736.44;4908582;29;20650;-87
2023/11/27 08:13:09;;;;;;;;;;;;;;;;;;;;;
2023/11/27 08:15:36;;;;;;;2.92;1.50;;;;;;;-4.80;50.70;93474.84;4919886;29;20524;-87
2023/11/27 08:18:04;;;;;;;5.97;2.08;;;;;;;-3.12;66.11;93732.66;4921049;28;20040;-85
2023/11/27 08:20:38;;;;;;;2.65;1.60;;;;;;;-4.79;64.92;93512.75;4921724;28;20047;-84
2023/11/27 08:23:04;;;;;;;1.60;1.50;;;;;;;-3.22;60.10;93706.47;4919768;28;20330;-87
2023/11/27 08:25:41;;;;;;;1.92;1.60;;;;;;;-4.38;58.99;93501.44;4936379;28;20040;-86
2023/11/27 08:28:07;;;;;;;1.83;1.70;;;;;;;-3.02;53.06;93713.09;4916279;28;20383;-87
2023/11/27 08:30:33;;;;;;;3.03;1.75;;;;;;;-3.24;52.14;93666.09;4909787;29;20035;-87
2023/11/27 08:33:00;;;;;;;1.98;1.60;;;;;;;-3.90;48.99;93529.66;4909466;29;20040;-86
2023/11/27 08:35:27;;;;;;;2.80;2.00;;;;;;;-2.63;50.65;93750.53;4909022;29;20090;-87
2023/11/27 08:37:53;;;;;;;1.73;1.63;;;;;;;-2.56;49.58;93738.13;4911712;28;20048;-87
2023/11/27 08:40:19;;;;;;;1.45;1.40;;;;;;;-2.67;50.09;93715.53;4907517;29;20414;-87
2023/11/27 08:42:45;;;;;;;1.25;1.10;;;;;;;-2.63;50.25;93720.03;4909453;29;20071;-87
2023/11/27 08:45:15;;;;;;;1.58;1.48;;;;;;;-2.45;49.98;93758.94;4908866;28;20127;-86
2023/11/27 08:47:51;;;;;;;1.73;1.50;;;;;;;-2.37;48.91;93760.34;4906315;29;20040;-86
2023/11/27 08:50:24;;;;;;;1.67;1.58;;;;;;;-2.52;48.84;93731.44;4910866;29;20711;-86
2023/11/27 08:52:50;;;;;;;1.60;1.50;;;;;;;-2.32;49.63;93752.63;4907165;28;20028;-86
2023/11/27 08:55:18;;;;;;;1.83;1.58;;;;;;;-2.50;48.63;93711.16;4907489;29;20031;-88
2023/11/27 08:57:49;;;;;;;2.28;2.08;;;;;;;-3.04;48.61;93609.25;4905826;29;20036;-90
2023/11/27 09:00:17;;;;;;;1.52;1.40;;;;;;;-2.56;47.83;93679.03;4909083;29;20597;-88
2023/11/27 09:02:44;;;;;;;2.10;1.58;;;;;;;-2.29;48.88;93726.88;4908094;29;20188;-86
2023/11/27 09:05:09;;;;;;;2.10;2.00;;;;;;;-2.30;48.39;93680.25;4908354;28;20040;-86
2023/11/27 09:07:35;;;;;;;1.67;1.58;;;;;;;-2.45;48.17;93659.19;4905372;29;20024;-85
2023/11/27 09:10:02;;;;;;;1.50;1.40;;;;;;;-1.95;48.75;93732.91;4907158;28;20168;-85
2023/11/27 09:12:29;;;;;;;1.60;1.50;;;;;;;-2.15;48.05;93680.50;4901840;29;20052;-87
2023/11/27 09:14:54;;;;;;;2.90;1.88;;;;;;;-1.80;47.05;93708.13;4908699;29;20295;-87
2023/11/27 09:17:20;;;;;;;2.00;1.90;;;;;;;-1.67;47.44;93708.56;4906181;29;20046;-89
2023/11/27 09:19:46;;;;;;;1.70;1.60;;;;;;;-1.71;46.98;93709.28;4906484;28;20028;-87
2023/11/27 09:22:13;;;;;;;2.72;1.38;;;;;;;-1.65;48.06;93724.75;4905498;29;20130;-86
2023/11/27 09:24:42;;;;;;;1.85;1.73;;;;;;;-2.04;47.47;93666.56;4909983;29;20204;-88
2023/11/27 09:27:07;;;;;;;1.27;1.20;;;;;;;-1.68;46.84;93708.78;4908517;28;20569;-88
2023/11/27 09:29:33;;;;;;;1.40;1.30;;;;;;;-2.85;48.77;93571.59;4906446;28;20044;-87
2023/11/27 09:31:59;;;;;;;1.33;1.30;;;;;;;-2.12;47.85;93653.97;4904445;29;20426;-87
2023/11/27 09:34:27;;;;;;;1.50;1.40;;;;;;;-2.31;48.22;93610.94;4907461;29;20024;-87
2023/11/27 09:36:53;;;;;;;1.83;1.45;;;;;;;-1.88;47.62;93670.97;4903060;29;20398;-87
2023/11/27 09:39:19;;;;;;;2.45;1.92;;;;;;;-1.73;47.65;93687.88;4911725;29;20506;-87
2023/11/27 09:41:45;;;;;;;4.95;2.88;;;;;;;-2.50;47.09;93544.50;4909408;29;20035;-85
2023/11/27 09:44:12;;;;;;;1.67;1.58;;;;;;;-1.72;45.28;93666.78;4903441;28;20529;-85
2023/11/27 09:46:42;;;;;;;1.48;1.20;;;;;;;-1.63;44.84;93678.38;4907966;29;20516;-86
2023/11/27 09:49:10;;;;;;;1.05;1.05;;;;;;;-1.55;46.63;93684.97;4907777;28;20043;-87
2023/11/27 09:51:38;;;;;;;1.10;1.10;;;;;;;-1.57;46.01;93681.84;4905284;28;20039;-85
2023/11/27 09:54:06;;;;;;;3.38;1.30;;;;;;;-1.58;47.02;93686.25;4921322;28;20306;-86
2023/11/27 09:56:32;;;;;;;1.25;1.00;;;;;;;-1.58;46.98;93695.91;4903018;28;20036;-85
2023/11/27 09:59:01;;;;;;;1.08;1.08;;;;;;;-1.62;47.09;93689.59;4916385;28;21043;-87
2023/11/27 10:01:29;;;;;;;1.60;1.50;;;;;;;-1.76;45.95;93668.28;4906443;29;20139;-89
2023/11/27 10:04:07;;;;;;;1.40;1.30;;;;;;;-1.55;42.28;93640.63;4911906;29;20036;-86
2023/11/27 10:06:41;;;;;;;2.03;1.10;;;;;;;-2.74;41.89;93464.00;4906340;29;20068;-86
2023/11/27 10:09:08;;;;;;;1.50;1.20;;;;;;;-1.80;41.38;93588.19;4917834;29;20189;-88
2023/11/27 10:11:35;;;;;;;1.20;1.10;;;;;;;-0.83;41.61;93687.41;4914644;29;20124;-87
2023/11/27 10:14:04;;;;;;;1.58;1.48;;;;;;;-1.42;40.85;93575.09;4922245;29;20551;-89
2023/11/27 10:16:31;;;;;;;1.77;1.55;;;;;;;-1.90;43.02;93534.88;4936954;28;20036;-88
2023/11/27 10:19:05;;;;;;;1.77;1.52;;;;;;;-0.68;43.12;93695.41;4914062;29;20032;-87
2023/11/27 10:21:31;;;;;;;1.77;1.55;;;;;;;-1.17;41.34;93591.00;4913346;29;20036;-87
2023/11/27 10:24:01;;;;;;;1.40;1.30;;;;;;;-0.84;41.67;93638.84;4920442;29;20624;-87
2023/11/27 10:26:33;;;;;;;3.63;1.70;;;;;;;-0.86;42.42;93620.78;4912644;29;20056;-88
2023/11/27 10:28:58;;;;;;;1.20;1.10;;;;;;;-0.43;41.54;93672.13;4915295;29;20048;-87
2023/11/27 10:31:24;;;;;;;1.85;1.40;;;;;;;-0.43;40.44;93677.34;4915113;29;20020;-88
2023/11/27 10:33:51;;;;;;;1.98;1.67;;;;;;;-1.64;41.23;93498.69;4917621;28;20763;-86
2023/11/27 10:36:23;;;;;;;1.58;1.40;;;;;;;-0.51;41.46;93654.28;4929401;28;20040;-87
2023/11/27 10:39:04;;;;;;;0.95;0.95;;;;;;;-0.30;40.71;93656.03;4915945;29;20042;-87
2023/11/27 10:41:30;;;;;;;1.60;1.50;;;;;;;-0.22;42.32;93668.66;4930971;28;20100;-88
2023/11/27 10:43:58;;;;;;;2.88;1.90;;;;;;;-0.66;43.45;93578.41;4921280;28;20131;-87
2023/11/27 10:46:29;;;;;;;3.97;2.35;;;;;;;0.16;42.07;93672.84;4922800;29;20130;-87
2023/11/27 10:48:59;;;;;;;1.63;1.52;;;;;;;0.12;43.28;93676.22;4916040;29;20043;-88
2023/11/27 10:51:30;;;;;;;1.58;1.42;;;;;;;-0.12;44.33;93632.13;4913158;29;20028;-87
2023/11/27 10:53:59;;;;;;;1.70;1.60;;;;;;;0.19;43.66;93627.91;4929199;28;20039;-88
2023/11/27 10:56:28;;;;;;;2.20;1.60;;;;;;;0.37;40.79;93658.06;4915993;29;20047;-87
2023/11/27 10:59:06;;;;;;;1.35;1.23;;;;;;;0.33;41.06;93617.75;4913625;28;20073;-87
2023/11/27 11:01:42;;;;;;;1.75;1.38;;;;;;;0.40;43.05;93622.78;4919370;29;20027;-88
2023/11/27 11:04:35;;;;;;;1.75;1.20;;;;;;;-0.23;41.51;93519.91;4927721;29;20040;-87
2023/11/27 11:07:19;;;;;;;2.33;1.80;;;;;;;-0.07;43.23;93561.59;4950779;28;20123;-86
2023/11/27 11:10:10;;;;;;;1.00;1.00;;;;;;;-0.90;42.97;93444.81;4930212;29;20058;-87
2023/11/27 11:12:41;;;;;;;2.08;1.10;;;;;;;0.68;43.66;93645.94;4939082;29;20048;-87
2023/11/27 11:15:20;;;;;;;3.83;1.48;;;;;;;-0.51;43.32;93450.53;4929184;29;20820;-86
2023/11/27 11:17:59;;;;;;;1.20;1.00;;;;;;;0.87;41.18;93644.44;4932205;29;20051;-85
2023/11/27 11:20:43;;;;;;;0.88;0.88;;;;;;;0.95;40.59;93651.78;4918611;29;20122;-86
2023/11/27 11:23:28;;;;;;;1.10;1.00;;;;;;;0.83;41.59;93645.19;4916509;29;20060;-87
2023/11/27 11:26:24;;;;;;;1.10;1.10;;;;;;;0.89;40.95;93639.72;4914709;29;20095;-87
2023/11/27 11:29:11;;;;;;;2.30;1.40;;;;;;;0.26;41.68;93570.91;4915929;29;20028;-87
2023/11/27 11:32:05;;;;;;;1.10;1.00;;;;;;;0.73;41.40;93643.34;4930788;28;20441;-87
2023/11/27 11:34:36;;;;;;;2.50;1.40;;;;;;;0.93;41.75;93629.53;4931976;28;20452;-87
2023/11/27 11:37:06;;;;;;;1.85;1.40;;;;;;;1.04;43.08;93641.59;4932920;28;20092;-87